sensor_id;sensor_type;location;lat;lon;timestamp;P1;durP1;ratioP1;P2;durP2;ratioP2
38785;SDS011;24535;45.508;12.252;2022-09-09T00:04:43;4.70;;;3.50;;
38785;SDS011;24535;45.508;12.252;2022-09-09T00:07:19;8.25;;;2.92;;
38785;SDS011;24535;45.508;12.252;2022-09-09T00:09:56;6.75;;;3.95;;
38785;SDS011;24535;45.508;12.252;2022-09-09T00:12:48;4.85;;;3.40;;
38785;SDS011;24535;45.508;12.252;2022-09-09T00:15:22;3.38;;;2.60;;
38785;SDS011;24535;45.508;12.252;2022-09-09T00:17:52;5.93;;;3.17;;
38785;SDS011;24535;45.508;12.252;2022-09-09T00:21:03;5.70;;;3.20;;
38785;SDS011;24535;45.508;12.252;2022-09-09T00:23:34;5.75;;;3.03;;
38785;SDS011;24535;45.508;12.252;2022-09-09T00:29:10;7.95;;;3.80;;
38785;SDS011;24535;45.508;12.252;2022-09-09T00:31:41;9.38;;;3.85;;
38785;SDS011;24535;45.508;12.252;2022-09-09T00:34:15;6.80;;;3.25;;
38785;SDS011;24535;45.508;12.252;2022-09-09T00:36:45;2.50;;;1.88;;
38785;SDS011;24535;45.508;12.252;2022-09-09T00:42:16;7.82;;;3.65;;
38785;SDS011;24535;45.508;12.252;2022-09-09T00:47:46;6.75;;;3.35;;
38785;SDS011;24535;45.508;12.252;2022-09-09T00:58:27;7.60;;;2.97;;
38785;SDS011;24535;45.508;12.252;2022-09-09T01:00:57;5.35;;;2.97;;
38785;SDS011;24535;45.508;12.252;2022-09-09T01:06:21;4.22;;;2.88;;
38785;SDS011;24535;45.508;12.252;2022-09-09T01:14:39;5.20;;;3.05;;
38785;SDS011;24535;45.508;12.252;2022-09-09T01:17:15;4.72;;;2.67;;
38785;SDS011;24535;45.508;12.252;2022-09-09T01:25:30;6.18;;;3.20;;
38785;SDS011;24535;45.508;12.252;2022-09-09T01:28:28;6.07;;;2.60;;
38785;SDS011;24535;45.508;12.252;2022-09-09T01:30:56;2.90;;;2.15;;
38785;SDS011;24535;45.508;12.252;2022-09-09T01:33:22;5.57;;;2.80;;
38785;SDS011;24535;45.508;12.252;2022-09-09T01:38:26;5.27;;;2.70;;
38785;SDS011;24535;45.508;12.252;2022-09-09T01:40:54;4.13;;;2.28;;
38785;SDS011;24535;45.508;12.252;2022-09-09T01:43:24;5.38;;;3.13;;
38785;SDS011;24535;45.508;12.252;2022-09-09T01:45:52;4.18;;;2.15;;
38785;SDS011;24535;45.508;12.252;2022-09-09T01:48:19;5.78;;;2.38;;
38785;SDS011;24535;45.508;12.252;2022-09-09T01:50:47;4.03;;;2.33;;
38785;SDS011;24535;45.508;12.252;2022-09-09T01:53:13;5.10;;;2.20;;
38785;SDS011;24535;45.508;12.252;2022-09-09T01:55:42;4.30;;;2.08;;
38785;SDS011;24535;45.508;12.252;2022-09-09T02:01:23;3.53;;;2.10;;
38785;SDS011;24535;45.508;12.252;2022-09-09T02:07:03;3.78;;;2.42;;
38785;SDS011;24535;45.508;12.252;2022-09-09T02:09:40;5.63;;;2.35;;
38785;SDS011;24535;45.508;12.252;2022-09-09T02:12:16;5.15;;;2.03;;
38785;SDS011;24535;45.508;12.252;2022-09-09T02:14:47;6.88;;;2.47;;
38785;SDS011;24535;45.508;12.252;2022-09-09T02:17:30;3.70;;;2.13;;
38785;SDS011;24535;45.508;12.252;2022-09-09T02:20:04;5.82;;;2.05;;
38785;SDS011;24535;45.508;12.252;2022-09-09T02:22:32;5.55;;;2.75;;
38785;SDS011;24535;45.508;12.252;2022-09-09T02:25:00;7.90;;;2.55;;
38785;SDS011;24535;45.508;12.252;2022-09-09T02:27:28;5.65;;;1.98;;
38785;SDS011;24535;45.508;12.252;2022-09-09T02:29:56;4.65;;;2.50;;
38785;SDS011;24535;45.508;12.252;2022-09-09T02:32:25;3.72;;;2.28;;
38785;SDS011;24535;45.508;12.252;2022-09-09T02:34:55;4.05;;;2.97;;
38785;SDS011;24535;45.508;12.252;2022-09-09T02:37:26;4.60;;;2.53;;
38785;SDS011;24535;45.508;12.252;2022-09-09T02:40:00;5.00;;;2.80;;
38785;SDS011;24535;45.508;12.252;2022-09-09T02:42:27;6.55;;;2.50;;
38785;SDS011;24535;45.508;12.252;2022-09-09T02:44:52;4.78;;;2.33;;
38785;SDS011;24535;45.508;12.252;2022-09-09T02:47:34;4.40;;;2.40;;
38785;SDS011;24535;45.508;12.252;2022-09-09T02:55:28;5.43;;;2.53;;
38785;SDS011;24535;45.508;12.252;2022-09-09T02:58:03;4.38;;;2.00;;
38785;SDS011;24535;45.508;12.252;2022-09-09T03:02:57;2.38;;;1.85;;
38785;SDS011;24535;45.508;12.252;2022-09-09T03:05:23;4.80;;;2.53;;
38785;SDS011;24535;45.508;12.252;2022-09-09T03:07:49;7.13;;;2.35;;
38785;SDS011;24535;45.508;12.252;2022-09-09T03:10:15;7.00;;;2.53;;
38785;SDS011;24535;45.508;12.252;2022-09-09T03:12:42;4.50;;;1.90;;
38785;SDS011;24535;45.508;12.252;2022-09-09T03:15:14;3.28;;;2.03;;
38785;SDS011;24535;45.508;12.252;2022-09-09T03:17:40;4.03;;;1.65;;
38785;SDS011;24535;45.508;12.252;2022-09-09T03:20:06;5.60;;;1.95;;
38785;SDS011;24535;45.508;12.252;2022-09-09T03:22:33;3.33;;;1.98;;
38785;SDS011;24535;45.508;12.252;2022-09-09T03:24:59;6.40;;;2.25;;
38785;SDS011;24535;45.508;12.252;2022-09-09T03:27:28;6.83;;;2.90;;
38785;SDS011;24535;45.508;12.252;2022-09-09T03:29:53;5.78;;;2.10;;
38785;SDS011;24535;45.508;12.252;2022-09-09T03:32:20;3.42;;;1.83;;
38785;SDS011;24535;45.508;12.252;2022-09-09T03:34:47;6.22;;;2.03;;
38785;SDS011;24535;45.508;12.252;2022-09-09T03:37:15;7.30;;;2.15;;
38785;SDS011;24535;45.508;12.252;2022-09-09T03:45:59;4.15;;;2.47;;
38785;SDS011;24535;45.508;12.252;2022-09-09T03:48:25;4.78;;;2.47;;
38785;SDS011;24535;45.508;12.252;2022-09-09T03:50:53;10.50;;;2.50;;
38785;SDS011;24535;45.508;12.252;2022-09-09T03:53:20;7.20;;;3.25;;
38785;SDS011;24535;45.508;12.252;2022-09-09T03:55:48;6.18;;;2.63;;
38785;SDS011;24535;45.508;12.252;2022-09-09T03:58:17;6.28;;;2.67;;
38785;SDS011;24535;45.508;12.252;2022-09-09T04:00:47;6.55;;;3.30;;
38785;SDS011;24535;45.508;12.252;2022-09-09T04:03:18;3.90;;;2.90;;
38785;SDS011;24535;45.508;12.252;2022-09-09T04:05:44;5.07;;;2.85;;
38785;SDS011;24535;45.508;12.252;2022-09-09T04:08:09;5.75;;;3.45;;
38785;SDS011;24535;45.508;12.252;2022-09-09T04:10:36;4.97;;;2.95;;
38785;SDS011;24535;45.508;12.252;2022-09-09T04:13:03;5.82;;;3.25;;
38785;SDS011;24535;45.508;12.252;2022-09-09T04:15:29;5.18;;;3.10;;
38785;SDS011;24535;45.508;12.252;2022-09-09T04:17:55;6.13;;;3.28;;
38785;SDS011;24535;45.508;12.252;2022-09-09T04:20:21;5.40;;;3.05;;
38785;SDS011;24535;45.508;12.252;2022-09-09T04:22:47;4.10;;;2.80;;
38785;SDS011;24535;45.508;12.252;2022-09-09T04:25:13;5.70;;;2.90;;
38785;SDS011;24535;45.508;12.252;2022-09-09T04:27:38;5.90;;;2.95;;
38785;SDS011;24535;45.508;12.252;2022-09-09T04:30:05;7.05;;;3.45;;
38785;SDS011;24535;45.508;12.252;2022-09-09T04:32:33;9.60;;;5.03;;
38785;SDS011;24535;45.508;12.252;2022-09-09T04:34:58;9.73;;;3.53;;
38785;SDS011;24535;45.508;12.252;2022-09-09T04:37:24;6.90;;;4.00;;
38785;SDS011;24535;45.508;12.252;2022-09-09T04:39:50;6.82;;;4.18;;
38785;SDS011;24535;45.508;12.252;2022-09-09T04:42:15;6.60;;;4.10;;
38785;SDS011;24535;45.508;12.252;2022-09-09T04:44:42;5.80;;;3.58;;
38785;SDS011;24535;45.508;12.252;2022-09-09T04:49:39;5.90;;;4.05;;
38785;SDS011;24535;45.508;12.252;2022-09-09T04:52:06;8.82;;;4.00;;
38785;SDS011;24535;45.508;12.252;2022-09-09T04:54:31;7.60;;;3.92;;
38785;SDS011;24535;45.508;12.252;2022-09-09T04:56:57;7.85;;;3.83;;
38785;SDS011;24535;45.508;12.252;2022-09-09T04:59:22;9.45;;;4.40;;
38785;SDS011;24535;45.508;12.252;2022-09-09T05:01:48;6.60;;;4.05;;
38785;SDS011;24535;45.508;12.252;2022-09-09T05:04:15;6.18;;;4.00;;
38785;SDS011;24535;45.508;12.252;2022-09-09T05:06:41;6.13;;;3.85;;
38785;SDS011;24535;45.508;12.252;2022-09-09T05:09:13;6.13;;;3.75;;
38785;SDS011;24535;45.508;12.252;2022-09-09T05:11:38;9.18;;;4.28;;
38785;SDS011;24535;45.508;12.252;2022-09-09T05:14:04;6.03;;;3.60;;
38785;SDS011;24535;45.508;12.252;2022-09-09T05:16:30;11.65;;;4.60;;
38785;SDS011;24535;45.508;12.252;2022-09-09T05:18:56;7.93;;;3.55;;
38785;SDS011;24535;45.508;12.252;2022-09-09T05:21:22;8.80;;;4.50;;
38785;SDS011;24535;45.508;12.252;2022-09-09T05:23:49;5.05;;;4.03;;
38785;SDS011;24535;45.508;12.252;2022-09-09T05:26:16;4.97;;;4.10;;
38785;SDS011;24535;45.508;12.252;2022-09-09T05:29:05;10.43;;;4.28;;
38785;SDS011;24535;45.508;12.252;2022-09-09T05:31:31;6.43;;;4.20;;
38785;SDS011;24535;45.508;12.252;2022-09-09T05:33:57;6.18;;;4.03;;
38785;SDS011;24535;45.508;12.252;2022-09-09T05:36:24;5.22;;;3.28;;
38785;SDS011;24535;45.508;12.252;2022-09-09T05:38:50;5.40;;;3.60;;
38785;SDS011;24535;45.508;12.252;2022-09-09T05:41:15;7.05;;;3.95;;
38785;SDS011;24535;45.508;12.252;2022-09-09T05:43:42;9.00;;;3.58;;
38785;SDS011;24535;45.508;12.252;2022-09-09T05:46:18;4.10;;;3.40;;
38785;SDS011;24535;45.508;12.252;2022-09-09T05:48:46;5.90;;;3.55;;
38785;SDS011;24535;45.508;12.252;2022-09-09T05:51:20;9.35;;;3.90;;
38785;SDS011;24535;45.508;12.252;2022-09-09T05:53:51;5.10;;;2.88;;
38785;SDS011;24535;45.508;12.252;2022-09-09T05:56:21;6.88;;;3.53;;
38785;SDS011;24535;45.508;12.252;2022-09-09T05:58:54;11.43;;;3.42;;
38785;SDS011;24535;45.508;12.252;2022-09-09T06:01:38;4.15;;;2.92;;
38785;SDS011;24535;45.508;12.252;2022-09-09T06:04:05;4.43;;;2.92;;
38785;SDS011;24535;45.508;12.252;2022-09-09T06:06:32;5.95;;;2.75;;
38785;SDS011;24535;45.508;12.252;2022-09-09T06:09:03;8.90;;;3.13;;
38785;SDS011;24535;45.508;12.252;2022-09-09T06:11:32;4.72;;;2.70;;
38785;SDS011;24535;45.508;12.252;2022-09-09T06:13:59;5.43;;;3.25;;
38785;SDS011;24535;45.508;12.252;2022-09-09T06:16:25;9.07;;;2.90;;
38785;SDS011;24535;45.508;12.252;2022-09-09T06:18:52;5.78;;;2.70;;
38785;SDS011;24535;45.508;12.252;2022-09-09T06:21:23;13.05;;;3.22;;
38785;SDS011;24535;45.508;12.252;2022-09-09T06:23:51;4.25;;;2.70;;
38785;SDS011;24535;45.508;12.252;2022-09-09T06:26:18;5.10;;;2.40;;
38785;SDS011;24535;45.508;12.252;2022-09-09T06:31:41;7.00;;;3.10;;
38785;SDS011;24535;45.508;12.252;2022-09-09T06:34:07;5.68;;;2.97;;
38785;SDS011;24535;45.508;12.252;2022-09-09T06:36:39;4.88;;;3.15;;
38785;SDS011;24535;45.508;12.252;2022-09-09T06:46:01;3.70;;;2.92;;
38785;SDS011;24535;45.508;12.252;2022-09-09T06:48:29;7.07;;;3.17;;
38785;SDS011;24535;45.508;12.252;2022-09-09T06:51:02;6.28;;;3.15;;
38785;SDS011;24535;45.508;12.252;2022-09-09T06:53:32;4.90;;;2.58;;
38785;SDS011;24535;45.508;12.252;2022-09-09T06:56:03;4.47;;;2.83;;
38785;SDS011;24535;45.508;12.252;2022-09-09T06:58:44;6.60;;;2.92;;
38785;SDS011;24535;45.508;12.252;2022-09-09T07:01:14;5.72;;;2.60;;
38785;SDS011;24535;45.508;12.252;2022-09-09T07:03:42;4.53;;;2.15;;
38785;SDS011;24535;45.508;12.252;2022-09-09T07:06:20;4.78;;;2.00;;
38785;SDS011;24535;45.508;12.252;2022-09-09T07:08:50;6.00;;;2.65;;
38785;SDS011;24535;45.508;12.252;2022-09-09T07:11:30;12.38;;;2.95;;
38785;SDS011;24535;45.508;12.252;2022-09-09T07:14:03;8.93;;;3.28;;
38785;SDS011;24535;45.508;12.252;2022-09-09T07:16:29;4.07;;;2.58;;
38785;SDS011;24535;45.508;12.252;2022-09-09T07:22:17;6.47;;;2.03;;
38785;SDS011;24535;45.508;12.252;2022-09-09T07:27:53;4.07;;;2.28;;
38785;SDS011;24535;45.508;12.252;2022-09-09T07:30:19;5.93;;;2.88;;
38785;SDS011;24535;45.508;12.252;2022-09-09T07:32:50;8.68;;;2.78;;
38785;SDS011;24535;45.508;12.252;2022-09-09T07:35:18;6.47;;;2.35;;
38785;SDS011;24535;45.508;12.252;2022-09-09T07:37:45;10.48;;;2.92;;
38785;SDS011;24535;45.508;12.252;2022-09-09T07:40:10;6.72;;;3.08;;
38785;SDS011;24535;45.508;12.252;2022-09-09T07:42:36;7.90;;;3.67;;
38785;SDS011;24535;45.508;12.252;2022-09-09T07:45:05;5.88;;;2.30;;
38785;SDS011;24535;45.508;12.252;2022-09-09T07:47:31;5.93;;;2.35;;
38785;SDS011;24535;45.508;12.252;2022-09-09T07:49:56;5.32;;;2.28;;
38785;SDS011;24535;45.508;12.252;2022-09-09T07:52:22;6.75;;;2.63;;
38785;SDS011;24535;45.508;12.252;2022-09-09T07:54:47;7.25;;;2.70;;
38785;SDS011;24535;45.508;12.252;2022-09-09T07:57:13;9.95;;;2.80;;
38785;SDS011;24535;45.508;12.252;2022-09-09T07:59:38;8.65;;;2.28;;
38785;SDS011;24535;45.508;12.252;2022-09-09T08:02:04;5.13;;;1.75;;
38785;SDS011;24535;45.508;12.252;2022-09-09T08:04:29;3.85;;;1.90;;
38785;SDS011;24535;45.508;12.252;2022-09-09T08:06:56;6.00;;;2.25;;
38785;SDS011;24535;45.508;12.252;2022-09-09T08:09:23;5.07;;;2.22;;
38785;SDS011;24535;45.508;12.252;2022-09-09T08:11:58;7.40;;;1.80;;
38785;SDS011;24535;45.508;12.252;2022-09-09T08:14:25;3.83;;;1.52;;
38785;SDS011;24535;45.508;12.252;2022-09-09T08:16:51;6.28;;;1.40;;
38785;SDS011;24535;45.508;12.252;2022-09-09T08:19:18;6.68;;;1.63;;
38785;SDS011;24535;45.508;12.252;2022-09-09T08:28:03;4.72;;;1.35;;
38785;SDS011;24535;45.508;12.252;2022-09-09T08:30:28;7.43;;;2.08;;
38785;SDS011;24535;45.508;12.252;2022-09-09T08:32:55;3.45;;;1.00;;
38785;SDS011;24535;45.508;12.252;2022-09-09T08:35:20;2.40;;;1.00;;
38785;SDS011;24535;45.508;12.252;2022-09-09T08:37:45;5.13;;;1.08;;
38785;SDS011;24535;45.508;12.252;2022-09-09T08:40:16;5.95;;;1.63;;
38785;SDS011;24535;45.508;12.252;2022-09-09T08:42:51;3.80;;;1.83;;
38785;SDS011;24535;45.508;12.252;2022-09-09T08:45:31;1.70;;;0.90;;
38785;SDS011;24535;45.508;12.252;2022-09-09T08:51:18;4.45;;;1.30;;
38785;SDS011;24535;45.508;12.252;2022-09-09T08:56:39;7.15;;;1.55;;
38785;SDS011;24535;45.508;12.252;2022-09-09T08:59:05;6.45;;;1.85;;
38785;SDS011;24535;45.508;12.252;2022-09-09T09:07:28;4.68;;;1.80;;
38785;SDS011;24535;45.508;12.252;2022-09-09T09:12:54;2.65;;;1.02;;
38785;SDS011;24535;45.508;12.252;2022-09-09T09:15:40;4.53;;;0.90;;
38785;SDS011;24535;45.508;12.252;2022-09-09T09:18:07;2.65;;;1.38;;
38785;SDS011;24535;45.508;12.252;2022-09-09T09:21:02;3.20;;;1.27;;
38785;SDS011;24535;45.508;12.252;2022-09-09T09:23:42;3.45;;;1.33;;
38785;SDS011;24535;45.508;12.252;2022-09-09T09:26:19;2.65;;;1.05;;
38785;SDS011;24535;45.508;12.252;2022-09-09T09:28:47;5.05;;;1.10;;
38785;SDS011;24535;45.508;12.252;2022-09-09T09:31:13;2.25;;;0.93;;
38785;SDS011;24535;45.508;12.252;2022-09-09T09:39:24;5.43;;;1.17;;
38785;SDS011;24535;45.508;12.252;2022-09-09T09:41:52;6.32;;;0.93;;
38785;SDS011;24535;45.508;12.252;2022-09-09T09:44:26;2.22;;;1.08;;
38785;SDS011;24535;45.508;12.252;2022-09-09T09:47:08;4.90;;;1.10;;
38785;SDS011;24535;45.508;12.252;2022-09-09T09:49:37;3.00;;;1.20;;
38785;SDS011;24535;45.508;12.252;2022-09-09T09:52:03;4.70;;;1.15;;
38785;SDS011;24535;45.508;12.252;2022-09-09T09:54:37;1.67;;;0.90;;
38785;SDS011;24535;45.508;12.252;2022-09-09T10:00:28;6.53;;;1.25;;
38785;SDS011;24535;45.508;12.252;2022-09-09T10:02:54;3.78;;;1.27;;
38785;SDS011;24535;45.508;12.252;2022-09-09T10:05:22;3.75;;;1.25;;
38785;SDS011;24535;45.508;12.252;2022-09-09T10:10:54;3.40;;;1.25;;
38785;SDS011;24535;45.508;12.252;2022-09-09T10:16:23;4.95;;;1.00;;
38785;SDS011;24535;45.508;12.252;2022-09-09T10:19:00;4.45;;;1.23;;
38785;SDS011;24535;45.508;12.252;2022-09-09T10:27:24;6.18;;;1.85;;
38785;SDS011;24535;45.508;12.252;2022-09-09T10:30:00;2.95;;;1.40;;
38785;SDS011;24535;45.508;12.252;2022-09-09T10:33:25;4.43;;;1.80;;
38785;SDS011;24535;45.508;12.252;2022-09-09T10:36:12;3.03;;;1.38;;
38785;SDS011;24535;45.508;12.252;2022-09-09T10:38:42;3.88;;;1.38;;
38785;SDS011;24535;45.508;12.252;2022-09-09T10:52:44;2.25;;;1.38;;
38785;SDS011;24535;45.508;12.252;2022-09-09T10:55:28;4.07;;;1.17;;
38785;SDS011;24535;45.508;12.252;2022-09-09T10:58:09;4.43;;;1.90;;
38785;SDS011;24535;45.508;12.252;2022-09-09T11:01:00;2.33;;;1.02;;
38785;SDS011;24535;45.508;12.252;2022-09-09T11:03:34;2.53;;;1.42;;
38785;SDS011;24535;45.508;12.252;2022-09-09T11:06:05;2.25;;;1.30;;
38785;SDS011;24535;45.508;12.252;2022-09-09T11:08:38;1.90;;;1.10;;
38785;SDS011;24535;45.508;12.252;2022-09-09T11:24:41;2.75;;;1.27;;
38785;SDS011;24535;45.508;12.252;2022-09-09T11:41:34;3.42;;;1.23;;
38785;SDS011;24535;45.508;12.252;2022-09-09T11:44:08;2.28;;;1.33;;
38785;SDS011;24535;45.508;12.252;2022-09-09T11:46:42;3.35;;;1.60;;
38785;SDS011;24535;45.508;12.252;2022-09-09T11:49:39;2.08;;;1.17;;
38785;SDS011;24535;45.508;12.252;2022-09-09T11:58:01;4.85;;;1.10;;
38785;SDS011;24535;45.508;12.252;2022-09-09T12:00:44;3.05;;;1.45;;
38785;SDS011;24535;45.508;12.252;2022-09-09T12:08:42;2.42;;;1.17;;
38785;SDS011;24535;45.508;12.252;2022-09-09T12:17:29;4.57;;;1.02;;
38785;SDS011;24535;45.508;12.252;2022-09-09T12:20:01;2.72;;;0.98;;
38785;SDS011;24535;45.508;12.252;2022-09-09T12:28:27;5.00;;;1.88;;
38785;SDS011;24535;45.508;12.252;2022-09-09T12:34:16;12.48;;;1.98;;
38785;SDS011;24535;45.508;12.252;2022-09-09T12:37:02;5.28;;;1.00;;
38785;SDS011;24535;45.508;12.252;2022-09-09T12:39:51;2.83;;;1.10;;
38785;SDS011;24535;45.508;12.252;2022-09-09T12:42:22;4.72;;;2.03;;
38785;SDS011;24535;45.508;12.252;2022-09-09T12:44:58;2.03;;;1.15;;
38785;SDS011;24535;45.508;12.252;2022-09-09T12:50:27;5.57;;;1.80;;
38785;SDS011;24535;45.508;12.252;2022-09-09T12:59:26;6.00;;;1.90;;
38785;SDS011;24535;45.508;12.252;2022-09-09T13:02:00;3.75;;;1.60;;
38785;SDS011;24535;45.508;12.252;2022-09-09T13:04:26;4.25;;;1.42;;
38785;SDS011;24535;45.508;12.252;2022-09-09T13:06:51;5.78;;;1.50;;
38785;SDS011;24535;45.508;12.252;2022-09-09T13:09:17;3.38;;;1.77;;
38785;SDS011;24535;45.508;12.252;2022-09-09T13:11:50;5.15;;;1.85;;
38785;SDS011;24535;45.508;12.252;2022-09-09T13:14:33;2.33;;;1.45;;
38785;SDS011;24535;45.508;12.252;2022-09-09T13:17:06;4.55;;;1.48;;
38785;SDS011;24535;45.508;12.252;2022-09-09T13:19:46;2.20;;;1.40;;
38785;SDS011;24535;45.508;12.252;2022-09-09T13:22:13;3.20;;;1.50;;
38785;SDS011;24535;45.508;12.252;2022-09-09T13:29:55;4.53;;;1.35;;
38785;SDS011;24535;45.508;12.252;2022-09-09T13:32:25;7.03;;;1.30;;
38785;SDS011;24535;45.508;12.252;2022-09-09T13:34:58;2.67;;;1.42;;
38785;SDS011;24535;45.508;12.252;2022-09-09T13:37:33;4.90;;;1.58;;
38785;SDS011;24535;45.508;12.252;2022-09-09T13:40:01;1.83;;;1.20;;
38785;SDS011;24535;45.508;12.252;2022-09-09T13:42:30;2.70;;;1.40;;
38785;SDS011;24535;45.508;12.252;2022-09-09T13:45:00;3.38;;;1.08;;
38785;SDS011;24535;45.508;12.252;2022-09-09T13:47:31;1.27;;;1.00;;
38785;SDS011;24535;45.508;12.252;2022-09-09T13:50:44;2.95;;;1.15;;
38785;SDS011;24535;45.508;12.252;2022-09-09T13:53:00;2.08;;;1.10;;
38785;SDS011;24535;45.508;12.252;2022-09-09T13:55:30;4.20;;;1.50;;
38785;SDS011;24535;45.508;12.252;2022-09-09T13:57:56;4.63;;;1.10;;
38785;SDS011;24535;45.508;12.252;2022-09-09T14:00:28;3.63;;;1.55;;
38785;SDS011;24535;45.508;12.252;2022-09-09T14:02:55;4.85;;;1.35;;
38785;SDS011;24535;45.508;12.252;2022-09-09T14:05:21;2.53;;;1.13;;
38785;SDS011;24535;45.508;12.252;2022-09-09T14:07:47;3.00;;;1.20;;
38785;SDS011;24535;45.508;12.252;2022-09-09T14:10:13;2.45;;;0.90;;
38785;SDS011;24535;45.508;12.252;2022-09-09T14:12:39;4.40;;;1.23;;
38785;SDS011;24535;45.508;12.252;2022-09-09T14:15:05;2.75;;;1.13;;
38785;SDS011;24535;45.508;12.252;2022-09-09T14:17:32;2.88;;;0.88;;
38785;SDS011;24535;45.508;12.252;2022-09-09T14:19:58;8.73;;;1.27;;
38785;SDS011;24535;45.508;12.252;2022-09-09T14:22:24;3.80;;;1.00;;
38785;SDS011;24535;45.508;12.252;2022-09-09T14:27:47;7.57;;;1.55;;
38785;SDS011;24535;45.508;12.252;2022-09-09T14:30:12;2.35;;;1.10;;
38785;SDS011;24535;45.508;12.252;2022-09-09T14:32:38;3.50;;;1.20;;
38785;SDS011;24535;45.508;12.252;2022-09-09T14:35:06;2.15;;;0.90;;
38785;SDS011;24535;45.508;12.252;2022-09-09T14:37:32;2.30;;;1.25;;
38785;SDS011;24535;45.508;12.252;2022-09-09T14:39:57;2.05;;;1.05;;
38785;SDS011;24535;45.508;12.252;2022-09-09T14:45:06;5.80;;;1.10;;
38785;SDS011;24535;45.508;12.252;2022-09-09T14:47:32;2.45;;;0.90;;
38785;SDS011;24535;45.508;12.252;2022-09-09T14:56:07;4.95;;;1.15;;
38785;SDS011;24535;45.508;12.252;2022-09-09T14:58:34;1.63;;;1.20;;
38785;SDS011;24535;45.508;12.252;2022-09-09T15:01:07;4.18;;;2.03;;
38785;SDS011;24535;45.508;12.252;2022-09-09T15:03:38;2.95;;;1.00;;
38785;SDS011;24535;45.508;12.252;2022-09-09T15:06:08;3.17;;;1.10;;
38785;SDS011;24535;45.508;12.252;2022-09-09T15:08:36;3.70;;;0.88;;
38785;SDS011;24535;45.508;12.252;2022-09-09T15:11:02;2.15;;;1.13;;
38785;SDS011;24535;45.508;12.252;2022-09-09T15:13:29;5.50;;;1.08;;
38785;SDS011;24535;45.508;12.252;2022-09-09T15:15:55;2.80;;;0.82;;
38785;SDS011;24535;45.508;12.252;2022-09-09T15:18:23;3.20;;;1.00;;
38785;SDS011;24535;45.508;12.252;2022-09-09T15:20:48;2.45;;;1.00;;
38785;SDS011;24535;45.508;12.252;2022-09-09T15:23:14;1.77;;;0.77;;
38785;SDS011;24535;45.508;12.252;2022-09-09T15:25:52;2.72;;;0.95;;
38785;SDS011;24535;45.508;12.252;2022-09-09T15:28:21;1.60;;;0.90;;
38785;SDS011;24535;45.508;12.252;2022-09-09T15:30:47;2.83;;;1.15;;
38785;SDS011;24535;45.508;12.252;2022-09-09T15:33:17;1.45;;;0.90;;
38785;SDS011;24535;45.508;12.252;2022-09-09T15:35:43;2.85;;;1.10;;
38785;SDS011;24535;45.508;12.252;2022-09-09T15:38:09;1.40;;;0.77;;
38785;SDS011;24535;45.508;12.252;2022-09-09T15:40:56;1.70;;;0.98;;
38785;SDS011;24535;45.508;12.252;2022-09-09T15:43:22;2.15;;;1.08;;
38785;SDS011;24535;45.508;12.252;2022-09-09T15:45:56;2.55;;;0.88;;
38785;SDS011;24535;45.508;12.252;2022-09-09T15:48:30;5.03;;;1.23;;
38785;SDS011;24535;45.508;12.252;2022-09-09T15:51:05;2.55;;;1.02;;
38785;SDS011;24535;45.508;12.252;2022-09-09T15:53:30;2.05;;;1.00;;
38785;SDS011;24535;45.508;12.252;2022-09-09T15:55:57;1.90;;;0.98;;
38785;SDS011;24535;45.508;12.252;2022-09-09T15:58:23;3.13;;;1.10;;
38785;SDS011;24535;45.508;12.252;2022-09-09T16:00:49;2.53;;;1.00;;
38785;SDS011;24535;45.508;12.252;2022-09-09T16:03:14;1.95;;;1.42;;
38785;SDS011;24535;45.508;12.252;2022-09-09T16:05:40;2.10;;;1.23;;
38785;SDS011;24535;45.508;12.252;2022-09-09T16:08:06;1.60;;;1.02;;
38785;SDS011;24535;45.508;12.252;2022-09-09T16:10:31;2.38;;;1.10;;
38785;SDS011;24535;45.508;12.252;2022-09-09T16:12:57;1.77;;;1.00;;
38785;SDS011;24535;45.508;12.252;2022-09-09T16:15:23;2.00;;;1.10;;
38785;SDS011;24535;45.508;12.252;2022-09-09T16:17:52;2.15;;;1.10;;
38785;SDS011;24535;45.508;12.252;2022-09-09T16:23:25;3.25;;;1.02;;
38785;SDS011;24535;45.508;12.252;2022-09-09T16:25:54;2.60;;;1.30;;
38785;SDS011;24535;45.508;12.252;2022-09-09T16:28:26;2.58;;;1.23;;
38785;SDS011;24535;45.508;12.252;2022-09-09T16:30:52;2.88;;;1.52;;
38785;SDS011;24535;45.508;12.252;2022-09-09T16:33:17;6.00;;;1.75;;
38785;SDS011;24535;45.508;12.252;2022-09-09T16:35:43;2.80;;;1.35;;
38785;SDS011;24535;45.508;12.252;2022-09-09T16:38:09;1.85;;;1.10;;
38785;SDS011;24535;45.508;12.252;2022-09-09T16:40:35;3.25;;;1.20;;
38785;SDS011;24535;45.508;12.252;2022-09-09T16:43:03;3.33;;;1.40;;
38785;SDS011;24535;45.508;12.252;2022-09-09T16:48:46;6.18;;;1.73;;
38785;SDS011;24535;45.508;12.252;2022-09-09T16:51:23;4.85;;;1.00;;
38785;SDS011;24535;45.508;12.252;2022-09-09T16:53:51;3.10;;;1.15;;
38785;SDS011;24535;45.508;12.252;2022-09-09T16:56:23;7.15;;;1.17;;
38785;SDS011;24535;45.508;12.252;2022-09-09T16:59:00;2.33;;;1.17;;
38785;SDS011;24535;45.508;12.252;2022-09-09T17:01:30;7.50;;;1.10;;
38785;SDS011;24535;45.508;12.252;2022-09-09T17:04:01;9.35;;;1.38;;
38785;SDS011;24535;45.508;12.252;2022-09-09T17:06:28;5.95;;;1.50;;
38785;SDS011;24535;45.508;12.252;2022-09-09T17:08:59;2.97;;;1.17;;
38785;SDS011;24535;45.508;12.252;2022-09-09T17:11:26;4.70;;;1.20;;
38785;SDS011;24535;45.508;12.252;2022-09-09T17:13:54;2.35;;;1.17;;
38785;SDS011;24535;45.508;12.252;2022-09-09T17:16:20;3.42;;;1.20;;
38785;SDS011;24535;45.508;12.252;2022-09-09T17:18:47;2.45;;;0.95;;
38785;SDS011;24535;45.508;12.252;2022-09-09T17:21:15;6.03;;;1.35;;
38785;SDS011;24535;45.508;12.252;2022-09-09T17:23:42;2.35;;;1.15;;
38785;SDS011;24535;45.508;12.252;2022-09-09T17:26:09;2.10;;;1.30;;
38785;SDS011;24535;45.508;12.252;2022-09-09T17:28:37;3.90;;;1.40;;
38785;SDS011;24535;45.508;12.252;2022-09-09T17:31:04;2.45;;;1.45;;
38785;SDS011;24535;45.508;12.252;2022-09-09T17:33:35;7.40;;;1.30;;
38785;SDS011;24535;45.508;12.252;2022-09-09T17:38:43;1.92;;;1.17;;
38785;SDS011;24535;45.508;12.252;2022-09-09T17:41:13;5.45;;;2.03;;
38785;SDS011;24535;45.508;12.252;2022-09-09T17:43:41;4.63;;;1.73;;
38785;SDS011;24535;45.508;12.252;2022-09-09T17:48:40;7.95;;;1.77;;
38785;SDS011;24535;45.508;12.252;2022-09-09T17:51:08;1.73;;;1.02;;
38785;SDS011;24535;45.508;12.252;2022-09-09T17:56:40;5.13;;;1.42;;
38785;SDS011;24535;45.508;12.252;2022-09-09T17:59:17;7.22;;;1.73;;
38785;SDS011;24535;45.508;12.252;2022-09-09T18:08:01;5.93;;;2.08;;
38785;SDS011;24535;45.508;12.252;2022-09-09T18:10:27;4.65;;;1.67;;
38785;SDS011;24535;45.508;12.252;2022-09-09T18:12:52;3.67;;;2.20;;
38785;SDS011;24535;45.508;12.252;2022-09-09T18:15:18;5.43;;;1.70;;
38785;SDS011;24535;45.508;12.252;2022-09-09T18:17:44;3.55;;;1.77;;
38785;SDS011;24535;45.508;12.252;2022-09-09T18:20:10;5.38;;;1.25;;
38785;SDS011;24535;45.508;12.252;2022-09-09T18:22:35;3.90;;;1.80;;
38785;SDS011;24535;45.508;12.252;2022-09-09T18:25:00;2.55;;;1.83;;
38785;SDS011;24535;45.508;12.252;2022-09-09T18:27:26;4.82;;;1.63;;
38785;SDS011;24535;45.508;12.252;2022-09-09T18:29:52;5.32;;;1.38;;
38785;SDS011;24535;45.508;12.252;2022-09-09T18:32:18;3.03;;;1.58;;
38785;SDS011;24535;45.508;12.252;2022-09-09T18:34:44;3.33;;;1.77;;
38785;SDS011;24535;45.508;12.252;2022-09-09T18:37:09;3.47;;;1.80;;
38785;SDS011;24535;45.508;12.252;2022-09-09T18:39:35;3.05;;;1.83;;
38785;SDS011;24535;45.508;12.252;2022-09-09T18:42:00;2.03;;;1.60;;